Rechercher aéroport 
image banner adimage banner adimage banner ad
image banner ad

KEMT - San Gabriel Valley

Situé à El Monte, United States

ICAO - EMT, IATA - EMT

Données fournies par Airmate  

Information générale

Coordonnées: N34°5'10" W118°2'5"
Élévation : 296 feet MSL.
Variation magnétique : 14° East
Voir autres Aéroports à California

Données opérationnelles

Special qualification required
Heure actuelle UTC:
Heure actuelle locale:
Météo
METAR: KEMT 212050Z 24006KT 10SM CLR 37/10 A3002 RMK RY01 PAPI OTS
Voir NOTAMs / SUP AIP / TFR affectant cet aéroport [VIEW]
Fréquences de communication: [VIEW]

Pistes:

Identifiant RWYQFULongueur (ft)Largeur (ft)SurfaceLDA (ft)
0125°399575ASPH3465
19205°399575ASPH3354

Coordonnées de l'aéroport

Adresse: El Monte United States

Autres services d'aviation

Écoles de pilotage

Universal Air Academy

Universal Air Academy

So Cal Flying Club

So Cal Flying Club

Aerial Sim Training

Aerial Sim Training

Vue satellite de KEMT